createdAt,value
2017-02-14T00:00:05.356Z,0
2017-02-14T00:01:06.172Z,0
2017-02-14T00:02:06.891Z,0
2017-02-14T00:03:07.597Z,0
2017-02-14T00:04:08.301Z,0
2017-02-14T00:05:08.995Z,0
2017-02-14T00:06:09.707Z,0
2017-02-14T00:07:10.440Z,0
2017-02-14T00:08:11.150Z,0
2017-02-14T00:09:11.858Z,0
2017-02-14T00:10:12.563Z,0
2017-02-14T00:11:13.310Z,0
2017-02-14T00:12:14.009Z,0
2017-02-14T00:13:14.703Z,0
2017-02-14T00:14:15.440Z,0
2017-02-14T00:15:16.157Z,0
2017-02-14T00:16:16.883Z,0
2017-02-14T00:17:17.621Z,0
2017-02-14T00:18:18.351Z,0
2017-02-14T00:19:19.068Z,0
2017-02-14T00:20:19.785Z,0
2017-02-14T00:21:20.480Z,0
2017-02-14T00:22:21.223Z,0
2017-02-14T00:23:21.905Z,0
2017-02-14T00:24:22.634Z,0
2017-02-14T00:25:23.363Z,0
2017-02-14T00:26:24.074Z,0
2017-02-14T00:27:24.853Z,0
2017-02-14T00:28:25.602Z,0
2017-02-14T00:29:26.318Z,0
2017-02-14T00:30:27.048Z,0
2017-02-14T00:31:27.837Z,0
2017-02-14T00:32:28.579Z,0
2017-02-14T00:33:29.376Z,0
2017-02-14T00:34:30.083Z,0
2017-02-14T00:35:30.818Z,0
2017-02-14T00:36:31.552Z,0
2017-02-14T00:37:32.238Z,0
2017-02-14T00:38:32.978Z,0
2017-02-14T00:39:33.707Z,0
2017-02-14T00:40:34.431Z,0
2017-02-14T00:41:35.314Z,0
2017-02-14T00:42:36.030Z,0
2017-02-14T00:43:36.734Z,0
2017-02-14T00:44:37.487Z,0
2017-02-14T00:45:38.287Z,0
2017-02-14T00:46:39.000Z,0
2017-02-14T00:47:39.749Z,0
2017-02-14T00:48:40.517Z,0
2017-02-14T00:49:41.229Z,0
2017-02-14T00:50:42.002Z,0
2017-02-14T00:51:42.761Z,0
2017-02-14T00:52:43.501Z,0
2017-02-14T00:53:44.203Z,0
2017-02-14T00:54:44.915Z,0
2017-02-14T00:55:45.632Z,0
2017-02-14T00:56:46.349Z,0
2017-02-14T00:57:47.094Z,0
2017-02-14T00:58:47.837Z,0
2017-02-14T00:59:48.623Z,0
2017-02-14T01:00:49.318Z,0
2017-02-14T01:01:50.032Z,0
2017-02-14T01:02:50.752Z,0
2017-02-14T01:03:51.469Z,0
2017-02-14T01:04:52.192Z,0
2017-02-14T01:05:52.903Z,0
2017-02-14T01:06:53.634Z,0
2017-02-14T01:07:54.353Z,0
2017-02-14T01:08:55.083Z,0
2017-02-14T01:09:55.774Z,0
2017-02-14T01:10:56.468Z,0
2017-02-14T01:11:57.183Z,0
2017-02-14T01:12:57.853Z,0
2017-02-14T01:13:58.564Z,0
2017-02-14T01:14:59.282Z,0
2017-02-14T01:15:59.997Z,0
2017-02-14T01:17:00.710Z,0
2017-02-14T01:18:01.425Z,0
2017-02-14T01:19:02.120Z,0
2017-02-14T01:20:02.820Z,0
2017-02-14T01:21:03.504Z,0
2017-02-14T01:22:04.200Z,0
2017-02-14T01:23:04.885Z,0
2017-02-14T01:24:05.580Z,0
2017-02-14T01:25:06.302Z,0
2017-02-14T01:26:07.023Z,0
2017-02-14T01:27:07.761Z,0
2017-02-14T01:28:08.475Z,0
2017-02-14T01:29:09.206Z,0
2017-02-14T01:30:09.922Z,0
2017-02-14T01:31:10.625Z,0
2017-02-14T01:32:11.344Z,0
2017-02-14T01:33:12.046Z,0
2017-02-14T01:34:12.742Z,0
2017-02-14T01:35:13.438Z,0
2017-02-14T01:36:14.176Z,0
2017-02-14T01:37:14.912Z,0
2017-02-14T01:38:15.587Z,0
2017-02-14T01:39:16.264Z,0
2017-02-14T01:40:16.974Z,0
2017-02-14T01:41:17.650Z,0
2017-02-14T01:42:18.346Z,0
2017-02-14T01:43:19.068Z,0
2017-02-14T01:44:19.830Z,0
2017-02-14T01:45:20.541Z,0
2017-02-14T01:46:21.243Z,0
2017-02-14T01:47:21.942Z,0
2017-02-14T01:48:22.633Z,0
2017-02-14T01:49:23.360Z,0
2017-02-14T01:50:24.119Z,0
2017-02-14T01:51:24.908Z,0
2017-02-14T01:52:25.570Z,0
2017-02-14T01:53:26.281Z,0
2017-02-14T01:54:26.974Z,0
2017-02-14T01:55:27.705Z,0
2017-02-14T01:56:28.422Z,0
2017-02-14T01:57:29.125Z,0
2017-02-14T01:58:29.841Z,0
2017-02-14T01:59:30.525Z,0
2017-02-14T02:00:31.235Z,0
2017-02-14T02:01:31.927Z,0
2017-02-14T02:02:32.702Z,0
2017-02-14T02:03:33.417Z,0
2017-02-14T02:04:34.142Z,0
2017-02-14T02:05:34.854Z,0
2017-02-14T02:06:35.558Z,0
2017-02-14T02:07:36.264Z,0
2017-02-14T02:08:36.965Z,0
2017-02-14T02:09:37.688Z,0
2017-02-14T02:10:38.383Z,0
2017-02-14T02:11:39.132Z,0
2017-02-14T02:12:39.813Z,0
2017-02-14T02:13:47.195Z,0
2017-02-14T02:14:47.918Z,0
2017-02-14T02:15:48.628Z,0
2017-02-14T02:16:49.413Z,0
2017-02-14T02:17:50.138Z,0
2017-02-14T02:18:50.864Z,0
2017-02-14T02:19:51.570Z,0
2017-02-14T02:20:52.267Z,0
2017-02-14T02:21:52.981Z,0
2017-02-14T02:22:53.698Z,0
2017-02-14T02:23:54.401Z,0
2017-02-14T02:24:55.099Z,0
2017-02-14T02:25:55.817Z,0
2017-02-14T02:26:56.518Z,0
2017-02-14T02:27:57.242Z,0
2017-02-14T02:28:57.926Z,0
2017-02-14T02:29:58.621Z,0
2017-02-14T02:30:59.284Z,0
2017-02-14T02:31:59.995Z,0
2017-02-14T02:33:00.678Z,0
2017-02-14T02:34:01.362Z,0
2017-02-14T02:35:02.031Z,0
2017-02-14T02:36:02.751Z,0
2017-02-14T02:37:03.454Z,0
2017-02-14T02:38:04.182Z,0
2017-02-14T02:39:04.890Z,0
2017-02-14T02:40:05.612Z,0
2017-02-14T02:41:06.304Z,0
2017-02-14T02:42:07.076Z,0
2017-02-14T02:43:07.736Z,0
2017-02-14T02:44:08.431Z,0
2017-02-14T02:45:09.149Z,0
2017-02-14T02:46:09.873Z,0
2017-02-14T02:47:10.588Z,0
2017-02-14T02:48:11.278Z,0
2017-02-14T02:49:11.991Z,0
2017-02-14T02:50:12.677Z,0
2017-02-14T02:51:13.394Z,0
2017-02-14T02:52:14.138Z,0
2017-02-14T02:53:14.848Z,0
2017-02-14T02:54:15.541Z,0
2017-02-14T02:55:16.234Z,0
2017-02-14T02:56:16.940Z,0
2017-02-14T02:57:17.643Z,0
2017-02-14T02:58:18.361Z,0
2017-02-14T02:59:19.068Z,0
2017-02-14T03:00:19.772Z,0
2017-02-14T03:01:20.470Z,0
2017-02-14T03:02:21.150Z,0
2017-02-14T03:03:21.910Z,0
2017-02-14T03:04:22.626Z,0
2017-02-14T03:05:23.385Z,0
2017-02-14T03:06:24.078Z,0
2017-02-14T03:07:24.760Z,0
2017-02-14T03:08:25.475Z,0
2017-02-14T03:09:26.214Z,0
2017-02-14T03:10:26.916Z,0
2017-02-14T03:11:27.638Z,0
2017-02-14T03:12:28.316Z,0
2017-02-14T03:13:29.008Z,0
2017-02-14T03:14:29.688Z,0
2017-02-14T03:15:30.379Z,0
2017-02-14T03:16:31.100Z,0
2017-02-14T03:17:31.774Z,0
2017-02-14T03:18:32.459Z,0
2017-02-14T03:19:33.169Z,0
2017-02-14T03:20:33.846Z,0
2017-02-14T03:21:34.539Z,0
2017-02-14T03:22:35.251Z,0
2017-02-14T03:23:35.965Z,0
2017-02-14T03:24:36.637Z,0
2017-02-14T03:25:37.325Z,0
2017-02-14T03:26:38.036Z,0
2017-02-14T03:27:38.702Z,0
2017-02-14T03:28:39.379Z,0
2017-02-14T03:29:40.049Z,0
2017-02-14T03:30:40.766Z,0
2017-02-14T03:31:41.445Z,0
2017-02-14T03:32:42.171Z,0
2017-02-14T03:33:42.862Z,0
2017-02-14T03:34:43.542Z,0
2017-02-14T03:35:44.224Z,0
2017-02-14T03:36:44.915Z,0
2017-02-14T03:37:45.594Z,0
2017-02-14T03:38:46.296Z,0
2017-02-14T03:39:47.017Z,0
2017-02-14T03:40:47.700Z,0
2017-02-14T03:41:48.390Z,0
2017-02-14T03:42:49.088Z,0
2017-02-14T03:43:49.798Z,0
2017-02-14T03:44:50.511Z,0
2017-02-14T03:45:51.203Z,0
2017-02-14T03:46:51.884Z,0
2017-02-14T03:47:52.583Z,0
2017-02-14T03:48:53.318Z,0
2017-02-14T03:49:54.012Z,0
2017-02-14T03:50:54.739Z,0
2017-02-14T03:51:55.411Z,0
2017-02-14T03:52:56.112Z,0
2017-02-14T03:53:56.841Z,0
2017-02-14T03:54:57.531Z,0
2017-02-14T03:55:58.233Z,0
2017-02-14T03:56:58.953Z,0
2017-02-14T03:57:59.694Z,0
2017-02-14T03:59:00.389Z,0
2017-02-14T04:00:01.124Z,0
2017-02-14T04:01:01.802Z,0
2017-02-14T04:02:02.505Z,0
2017-02-14T04:03:03.187Z,0
2017-02-14T04:04:03.929Z,0
2017-02-14T04:05:04.641Z,0
2017-02-14T04:06:05.365Z,0
2017-02-14T04:07:06.094Z,0
2017-02-14T04:08:06.786Z,0
2017-02-14T04:09:07.486Z,0
2017-02-14T04:10:08.203Z,0
2017-02-14T04:11:08.891Z,0
2017-02-14T04:12:09.598Z,0
2017-02-14T04:13:10.294Z,0
2017-02-14T04:14:11.003Z,0
2017-02-14T04:15:11.712Z,0
2017-02-14T04:16:12.399Z,0
2017-02-14T04:17:13.115Z,0
2017-02-14T04:18:13.809Z,0
2017-02-14T04:19:14.522Z,0
2017-02-14T04:20:15.223Z,0
2017-02-14T04:21:15.916Z,0
2017-02-14T04:22:16.632Z,0
2017-02-14T04:23:17.344Z,0
2017-02-14T04:24:18.045Z,0
2017-02-14T04:25:18.745Z,0
2017-02-14T04:26:19.435Z,0
2017-02-14T04:27:20.120Z,0
2017-02-14T04:28:20.818Z,0
2017-02-14T04:29:21.507Z,0
2017-02-14T04:30:22.222Z,0
2017-02-14T04:31:22.936Z,0
2017-02-14T04:32:23.646Z,0
2017-02-14T04:33:24.352Z,0
2017-02-14T04:34:25.061Z,0
2017-02-14T04:35:25.761Z,0
2017-02-14T04:36:26.473Z,0
2017-02-14T04:37:27.172Z,0
2017-02-14T04:38:27.906Z,0
2017-02-14T04:39:28.651Z,0
2017-02-14T04:40:29.356Z,0
2017-02-14T04:41:30.050Z,0
2017-02-14T04:42:30.725Z,0
2017-02-14T04:43:31.436Z,0
2017-02-14T04:44:32.165Z,0
2017-02-14T04:45:32.853Z,0
2017-02-14T04:46:33.549Z,0
2017-02-14T04:47:34.265Z,0
2017-02-14T04:48:34.959Z,0
2017-02-14T04:49:35.635Z,0
2017-02-14T04:50:36.311Z,0
2017-02-14T04:51:37.033Z,0
2017-02-14T04:52:37.735Z,0
2017-02-14T04:53:38.433Z,0
2017-02-14T04:54:39.172Z,0
2017-02-14T04:55:39.867Z,0
2017-02-14T04:56:40.598Z,0
2017-02-14T04:57:41.292Z,0
2017-02-14T04:58:42.013Z,0
2017-02-14T04:59:42.717Z,0
2017-02-14T05:00:43.425Z,0
2017-02-14T05:01:44.126Z,0
2017-02-14T05:02:44.829Z,0
2017-02-14T05:03:45.532Z,0
2017-02-14T05:04:46.256Z,0
2017-02-14T05:05:46.942Z,0
2017-02-14T05:06:47.656Z,0
2017-02-14T05:07:48.353Z,0
2017-02-14T05:08:49.056Z,0
2017-02-14T05:09:49.769Z,0
2017-02-14T05:10:50.462Z,0
2017-02-14T05:11:51.158Z,0
2017-02-14T05:12:51.857Z,0
2017-02-14T05:13:52.530Z,0
2017-02-14T05:14:53.251Z,0
2017-02-14T05:15:53.945Z,0
2017-02-14T05:16:54.641Z,0
2017-02-14T05:17:55.341Z,0
2017-02-14T05:18:56.037Z,0
2017-02-14T05:19:56.764Z,0
2017-02-14T05:20:57.485Z,0
2017-02-14T05:21:58.171Z,0
2017-02-14T05:22:58.848Z,0
2017-02-14T05:23:59.552Z,0
2017-02-14T05:25:00.241Z,0
2017-02-14T05:26:00.939Z,0
2017-02-14T05:27:01.639Z,0
2017-02-14T05:28:02.331Z,0
2017-02-14T05:29:03.023Z,0
2017-02-14T05:30:03.737Z,0
2017-02-14T05:31:04.456Z,0
2017-02-14T05:32:05.153Z,0
2017-02-14T05:33:05.851Z,0
2017-02-14T05:34:06.542Z,0
2017-02-14T05:35:07.265Z,0
2017-02-14T05:36:07.998Z,0
2017-02-14T05:37:08.701Z,0
2017-02-14T05:38:09.430Z,0
2017-02-14T05:39:10.141Z,0
2017-02-14T05:40:10.843Z,0
2017-02-14T05:41:11.556Z,0
2017-02-14T05:42:12.249Z,0
2017-02-14T05:43:12.944Z,0
2017-02-14T05:44:13.640Z,0
2017-02-14T05:45:14.355Z,0
2017-02-14T05:46:15.068Z,0
2017-02-14T05:47:15.770Z,0
2017-02-14T05:48:16.499Z,0
2017-02-14T05:49:17.211Z,0
2017-02-14T05:50:17.934Z,0
2017-02-14T05:51:18.635Z,0
2017-02-14T05:52:19.359Z,0
2017-02-14T05:53:20.079Z,0
2017-02-14T05:54:20.806Z,0
2017-02-14T05:55:21.491Z,0
2017-02-14T05:56:22.193Z,0
2017-02-14T05:57:22.941Z,0
2017-02-14T05:58:23.646Z,0
2017-02-14T05:59:24.358Z,0
2017-02-14T06:00:25.061Z,0
2017-02-14T06:01:25.767Z,0
2017-02-14T06:02:26.460Z,4
2017-02-14T06:03:27.176Z,4
2017-02-14T06:04:27.860Z,0
2017-02-14T06:05:28.564Z,0
2017-02-14T06:06:29.360Z,4
2017-02-14T06:07:30.071Z,4
2017-02-14T06:08:30.788Z,4
2017-02-14T06:09:31.484Z,8
2017-02-14T06:10:32.187Z,4
2017-02-14T06:11:32.902Z,4
2017-02-14T06:12:33.585Z,8
2017-02-14T06:13:34.290Z,8
2017-02-14T06:14:34.990Z,12
2017-02-14T06:15:35.693Z,12
2017-02-14T06:16:36.408Z,16
2017-02-14T06:17:37.104Z,20
2017-02-14T06:18:37.808Z,20
2017-02-14T06:19:38.512Z,24
2017-02-14T06:20:39.211Z,28
2017-02-14T06:21:39.956Z,36
2017-02-14T06:22:40.626Z,40
2017-02-14T06:23:41.341Z,48
2017-02-14T06:24:42.019Z,52
2017-02-14T06:25:42.689Z,64
2017-02-14T06:26:43.357Z,72
2017-02-14T06:27:44.092Z,84
2017-02-14T06:28:44.837Z,96
2017-02-14T06:29:45.551Z,112
2017-02-14T06:30:46.264Z,124
2017-02-14T06:31:46.999Z,140
2017-02-14T06:32:47.725Z,156
2017-02-14T06:33:48.426Z,172
2017-02-14T06:34:49.097Z,192
2017-02-14T06:35:49.794Z,208
2017-02-14T06:36:50.479Z,228
2017-02-14T06:37:51.198Z,248
2017-02-14T06:38:51.914Z,272
2017-02-14T06:39:52.571Z,296
2017-02-14T06:40:53.256Z,324
2017-02-14T06:41:53.982Z,348
2017-02-14T06:42:54.672Z,376
2017-02-14T06:43:55.381Z,404
2017-02-14T06:44:56.088Z,428
2017-02-14T06:45:56.782Z,464
2017-02-14T06:46:57.495Z,492
2017-02-14T06:47:58.200Z,528
2017-02-14T06:48:58.915Z,564
2017-02-14T06:49:59.618Z,600
2017-02-14T06:51:00.330Z,636
2017-02-14T06:52:01.041Z,672
2017-02-14T06:53:01.744Z,712
2017-02-14T06:54:02.443Z,748
2017-02-14T06:55:03.160Z,796
2017-02-14T06:56:03.843Z,844
2017-02-14T06:57:04.563Z,888
2017-02-14T06:58:05.258Z,932
2017-02-14T06:59:05.977Z,968
2017-02-14T07:00:06.687Z,1020
2017-02-14T07:01:07.427Z,1084
2017-02-14T07:02:08.121Z,1152
2017-02-14T07:03:08.834Z,1216
2017-02-14T07:04:09.537Z,1264
2017-02-14T07:05:10.295Z,1300
2017-02-14T07:06:10.985Z,1348
2017-02-14T07:07:11.689Z,1400
2017-02-14T07:08:12.386Z,1448
2017-02-14T07:09:13.093Z,1500
2017-02-14T07:10:13.799Z,1552
2017-02-14T07:11:14.503Z,1608
2017-02-14T07:12:15.220Z,1672
2017-02-14T07:13:15.957Z,1748
2017-02-14T07:14:16.666Z,1812
2017-02-14T07:15:17.384Z,1900
2017-02-14T07:16:18.139Z,1960
2017-02-14T07:17:18.852Z,2012
2017-02-14T07:18:19.563Z,2044
2017-02-14T07:19:20.277Z,2064
2017-02-14T07:20:20.988Z,2116
2017-02-14T07:21:21.708Z,2176
2017-02-14T07:22:22.403Z,2264
2017-02-14T07:23:23.102Z,2336
2017-02-14T07:24:23.814Z,2396
2017-02-14T07:25:24.630Z,2476
2017-02-14T07:26:25.316Z,2600
2017-02-14T07:27:26.096Z,2708
2017-02-14T07:28:26.792Z,2820
2017-02-14T07:29:27.494Z,2912
2017-02-14T07:30:28.226Z,2968
2017-02-14T07:31:28.946Z,3056
2017-02-14T07:32:29.646Z,3116
2017-02-14T07:33:30.336Z,3192
2017-02-14T07:34:31.065Z,3308
2017-02-14T07:35:31.782Z,3400
2017-02-14T07:36:32.485Z,3456
2017-02-14T07:37:33.188Z,3532
2017-02-14T07:38:33.935Z,3584
2017-02-14T07:39:34.694Z,3740
2017-02-14T07:40:35.415Z,3780
2017-02-14T07:41:36.129Z,3856
2017-02-14T07:42:36.816Z,3924
2017-02-14T07:43:37.533Z,4012
2017-02-14T07:44:38.237Z,4112
2017-02-14T07:45:38.933Z,4132
2017-02-14T07:46:39.636Z,4208
2017-02-14T07:47:40.356Z,4188
2017-02-14T07:48:41.063Z,4280
2017-02-14T07:49:41.764Z,4304
2017-02-14T07:50:42.448Z,4436
2017-02-14T07:51:43.150Z,4732
2017-02-14T07:52:43.879Z,5080
2017-02-14T07:53:44.590Z,5252
2017-02-14T07:54:45.276Z,5372
2017-02-14T07:55:45.991Z,5452
2017-02-14T07:56:46.704Z,5632
2017-02-14T07:57:47.439Z,5764
2017-02-14T07:58:48.163Z,5884
2017-02-14T07:59:48.848Z,6132
2017-02-14T08:00:49.546Z,6504
2017-02-14T08:01:50.369Z,6608
2017-02-14T08:02:51.128Z,6892
2017-02-14T08:03:51.896Z,7116
2017-02-14T08:04:52.603Z,7052
2017-02-14T08:05:53.420Z,7176
2017-02-14T08:06:54.212Z,7436
2017-02-14T08:07:54.915Z,7144
2017-02-14T08:08:55.656Z,6828
2017-02-14T08:09:56.445Z,6776
2017-02-14T08:10:57.117Z,6716
2017-02-14T08:11:57.834Z,7036
2017-02-14T08:12:58.557Z,6920
2017-02-14T08:13:59.242Z,6676
2017-02-14T08:14:59.927Z,6532
2017-02-14T08:16:00.632Z,6872
2017-02-14T08:17:01.395Z,7400
2017-02-14T08:18:02.122Z,7456
2017-02-14T08:19:02.804Z,7240
2017-02-14T08:20:03.509Z,6956
2017-02-14T08:21:04.195Z,7476
2017-02-14T08:22:04.906Z,8272
2017-02-14T08:23:05.636Z,7616
2017-02-14T08:24:06.387Z,7512
2017-02-14T08:25:07.094Z,7868
2017-02-14T08:26:07.802Z,8520
2017-02-14T08:27:08.553Z,7812
2017-02-14T08:28:09.280Z,6584
2017-02-14T08:29:09.987Z,7476
2017-02-14T08:30:10.723Z,9808
2017-02-14T08:31:11.425Z,10960
2017-02-14T08:32:12.138Z,10208
2017-02-14T08:33:12.839Z,9048
2017-02-14T08:34:13.547Z,7168
2017-02-14T08:35:14.319Z,7900
2017-02-14T08:36:15.060Z,7636
2017-02-14T08:37:15.797Z,7500
2017-02-14T08:38:16.502Z,7772
2017-02-14T08:39:17.219Z,7568
2017-02-14T08:40:17.941Z,7900
2017-02-14T08:41:21.528Z,8452
2017-02-14T08:42:22.256Z,9964
2017-02-14T08:43:22.987Z,9592
2017-02-14T08:44:23.718Z,8900
2017-02-14T08:45:24.612Z,10064
2017-02-14T08:46:25.312Z,9684
2017-02-14T08:47:26.041Z,9152
2017-02-14T08:48:26.803Z,9984
2017-02-14T08:49:27.516Z,12664
2017-02-14T08:50:28.229Z,13952
2017-02-14T08:51:28.974Z,13612
2017-02-14T08:52:29.728Z,12736
2017-02-14T08:53:30.437Z,13340
2017-02-14T08:54:31.161Z,12716
2017-02-14T08:55:31.899Z,11940
2017-02-14T08:56:32.660Z,11428
2017-02-14T08:57:33.396Z,12832
2017-02-14T08:58:34.135Z,14816
2017-02-14T08:59:34.848Z,15916
2017-02-14T09:00:35.585Z,16128
2017-02-14T09:01:36.304Z,15424
2017-02-14T09:02:37.020Z,16320
2017-02-14T09:03:37.738Z,16352
2017-02-14T09:04:38.486Z,17152
2017-02-14T09:05:39.206Z,17696
2017-02-14T09:06:39.902Z,17216
2017-02-14T09:07:40.622Z,16704
2017-02-14T09:08:41.330Z,16672
2017-02-14T09:09:42.047Z,17280
2017-02-14T09:10:42.784Z,17856
2017-02-14T09:11:43.583Z,18208
2017-02-14T09:12:44.304Z,17504
2017-02-14T09:13:45.029Z,15968
2017-02-14T09:14:45.734Z,10396
2017-02-14T09:15:46.445Z,6360
2017-02-14T09:16:47.174Z,6236
2017-02-14T09:17:47.886Z,6188
2017-02-14T09:18:48.597Z,6132
2017-02-14T09:19:49.324Z,6140
2017-02-14T09:20:50.048Z,6244
2017-02-14T09:21:50.770Z,6188
2017-02-14T09:22:51.470Z,6060
2017-02-14T09:23:52.219Z,6120
2017-02-14T09:24:52.937Z,6100
2017-02-14T09:25:53.652Z,6068
2017-02-14T09:26:54.389Z,6032
2017-02-14T09:27:55.107Z,6036
2017-02-14T09:28:55.854Z,6056
2017-02-14T09:29:56.588Z,6112
2017-02-14T09:30:57.308Z,5968
2017-02-14T09:31:58.144Z,5888
2017-02-14T09:32:58.877Z,5908
2017-02-14T09:33:59.594Z,5904
2017-02-14T09:35:00.319Z,5860
2017-02-14T09:36:01.048Z,5892
2017-02-14T09:37:01.727Z,5944
2017-02-14T09:38:02.408Z,5952
2017-02-14T09:39:03.139Z,5964
2017-02-14T09:40:03.856Z,5884
2017-02-14T09:41:04.575Z,5804
2017-02-14T09:42:05.328Z,5868
2017-02-14T09:43:06.074Z,5876
2017-02-14T09:44:06.791Z,5828
2017-02-14T09:45:07.529Z,5924
2017-02-14T09:46:08.271Z,5868
2017-02-14T09:47:08.994Z,5852
2017-02-14T09:48:09.741Z,5800
2017-02-14T09:49:10.422Z,5756
2017-02-14T09:50:11.132Z,5760
2017-02-14T09:51:11.843Z,5736
2017-02-14T09:52:12.535Z,5688
2017-02-14T09:53:13.297Z,5624
2017-02-14T09:54:14.008Z,5628
2017-02-14T09:55:14.762Z,5616
2017-02-14T09:56:15.461Z,5604
2017-02-14T09:57:16.184Z,5608
2017-02-14T09:58:16.909Z,5628
2017-02-14T09:59:17.621Z,5600
2017-02-14T10:00:18.359Z,5612
2017-02-14T10:01:19.087Z,5624
2017-02-14T10:02:19.817Z,5572
2017-02-14T10:03:20.565Z,5504
2017-02-14T10:04:21.394Z,5448
2017-02-14T10:05:22.031Z,5464
2017-02-14T10:06:22.760Z,5472
2017-02-14T10:07:23.470Z,5468
2017-02-14T10:08:24.166Z,5404
2017-02-14T10:09:24.900Z,5408
2017-02-14T10:10:25.842Z,5408
2017-02-14T10:11:26.627Z,5412
2017-02-14T10:12:27.395Z,5368
2017-02-14T10:13:28.157Z,5388
2017-02-14T10:14:28.946Z,5376
2017-02-14T10:15:29.800Z,5344
2017-02-14T10:16:30.607Z,5300
2017-02-14T10:17:31.356Z,5264
2017-02-14T10:18:32.113Z,5264
2017-02-14T10:19:32.862Z,5268
2017-02-14T10:20:33.599Z,5240
2017-02-14T10:21:34.334Z,5140
2017-02-14T10:22:35.119Z,5136
2017-02-14T10:23:35.842Z,5136
2017-02-14T10:24:36.674Z,5140
2017-02-14T10:25:37.516Z,5100
2017-02-14T10:26:38.266Z,5064
2017-02-14T10:27:38.965Z,5036
2017-02-14T10:28:39.732Z,5016
2017-02-14T10:29:40.539Z,5000
2017-02-14T10:30:41.527Z,5004
2017-02-14T10:31:42.292Z,4996
2017-02-14T10:32:43.142Z,4956
2017-02-14T10:33:44.155Z,4912
2017-02-14T10:34:45.211Z,4880
2017-02-14T10:35:46.230Z,4856
2017-02-14T10:36:47.078Z,4848
2017-02-14T10:37:47.842Z,4804
2017-02-14T10:38:48.619Z,4776
2017-02-14T10:39:49.417Z,4760
2017-02-14T10:40:50.257Z,4740
2017-02-14T10:41:51.157Z,4732
2017-02-14T10:42:51.912Z,4724
2017-02-14T10:43:52.688Z,4716
2017-02-14T10:44:53.439Z,4688
2017-02-14T10:45:54.260Z,4684
2017-02-14T10:46:55.068Z,4672
2017-02-14T10:47:55.845Z,4644
2017-02-14T10:48:56.549Z,4632
2017-02-14T10:49:57.283Z,4616
2017-02-14T10:50:58.077Z,4612
2017-02-14T10:51:58.799Z,4600
2017-02-14T10:52:59.534Z,4600
2017-02-14T10:54:00.235Z,4604
2017-02-14T10:55:00.961Z,4584
2017-02-14T10:56:01.721Z,4560
2017-02-14T10:57:02.458Z,4560
2017-02-14T10:58:03.215Z,4548
2017-02-14T10:59:03.939Z,4532
2017-02-14T11:00:04.676Z,4512
2017-02-14T11:01:05.410Z,4496
2017-02-14T11:02:06.142Z,4476
2017-02-14T11:03:06.874Z,4472
2017-02-14T11:04:07.601Z,4468
2017-02-14T11:05:08.334Z,4460
2017-02-14T11:06:09.140Z,4464
2017-02-14T11:07:09.838Z,4456
2017-02-14T11:08:10.573Z,4424
2017-02-14T11:09:11.355Z,4416
2017-02-14T11:10:12.092Z,4392
2017-02-14T11:11:12.852Z,4388
2017-02-14T11:12:13.607Z,4376
2017-02-14T11:13:14.354Z,4360
2017-02-14T11:14:15.067Z,4340
2017-02-14T11:15:15.780Z,4324
2017-02-14T11:16:16.500Z,4320
2017-02-14T11:17:17.184Z,4300
2017-02-14T11:18:17.925Z,4288
2017-02-14T11:19:18.629Z,4280
2017-02-14T11:20:19.339Z,4296
2017-02-14T11:21:20.071Z,4284
2017-02-14T11:22:20.821Z,4264
2017-02-14T11:23:21.571Z,4256
2017-02-14T11:24:22.299Z,4236
2017-02-14T11:25:23.043Z,4232
2017-02-14T11:26:23.836Z,4208
2017-02-14T11:27:24.567Z,4220
2017-02-14T11:28:25.297Z,4212
2017-02-14T11:29:26.004Z,4196
2017-02-14T11:30:26.745Z,4188
2017-02-14T11:31:27.512Z,4176
2017-02-14T11:32:28.201Z,4172
2017-02-14T11:33:28.909Z,4176
2017-02-14T11:34:29.639Z,4176
2017-02-14T11:35:30.379Z,4164
2017-02-14T11:36:31.066Z,4168
2017-02-14T11:37:31.794Z,4136
2017-02-14T11:38:32.525Z,4128
2017-02-14T11:39:33.292Z,4096
2017-02-14T11:40:34.028Z,4076
2017-02-14T11:41:34.750Z,4064
2017-02-14T11:42:35.519Z,4060
2017-02-14T11:43:36.240Z,4032
2017-02-14T11:44:36.988Z,4040
2017-02-14T11:45:37.713Z,4024
2017-02-14T11:46:38.436Z,4008
2017-02-14T11:47:39.172Z,3988
2017-02-14T11:48:39.917Z,3988
2017-02-14T11:49:40.622Z,3968
2017-02-14T11:50:41.363Z,3944
2017-02-14T11:51:42.063Z,3944
2017-02-14T11:52:42.771Z,3944
2017-02-14T11:53:43.489Z,3944
2017-02-14T11:54:44.215Z,3928
2017-02-14T11:55:44.924Z,3928
2017-02-14T11:56:45.644Z,3912
2017-02-14T11:57:46.360Z,3912
2017-02-14T11:58:47.096Z,3900
2017-02-14T11:59:47.819Z,3880
2017-02-14T12:00:48.542Z,3868
2017-02-14T12:01:49.291Z,3860
2017-02-14T12:02:50.017Z,3840
2017-02-14T12:03:50.785Z,3824
2017-02-14T12:04:51.547Z,3824
2017-02-14T12:05:52.322Z,3804
2017-02-14T12:06:53.030Z,3784
2017-02-14T12:07:53.827Z,3776
2017-02-14T12:08:54.492Z,3768
2017-02-14T12:09:55.378Z,3752
2017-02-14T12:10:56.154Z,3724
2017-02-14T12:11:56.874Z,3704
2017-02-14T12:12:57.596Z,3696
2017-02-14T12:13:58.343Z,3700
2017-02-14T12:14:59.225Z,3684
2017-02-14T12:16:00.034Z,3680
2017-02-14T12:17:00.758Z,3680
2017-02-14T12:18:01.513Z,3668
2017-02-14T12:19:02.186Z,3656
2017-02-14T12:20:02.985Z,3672
2017-02-14T12:21:03.705Z,3656
2017-02-14T12:22:04.436Z,3648
2017-02-14T12:23:05.168Z,3660
2017-02-14T12:24:05.912Z,3648
2017-02-14T12:25:06.618Z,3640
2017-02-14T12:26:07.340Z,3624
2017-02-14T12:27:08.050Z,3608
2017-02-14T12:28:08.746Z,3596
2017-02-14T12:29:09.484Z,3600
2017-02-14T12:30:10.228Z,3596
2017-02-14T12:31:10.969Z,3600
2017-02-14T12:32:11.700Z,3584
2017-02-14T12:33:12.423Z,3588
2017-02-14T12:34:13.156Z,3572
2017-02-14T12:35:13.870Z,3584
2017-02-14T12:36:14.618Z,3568
2017-02-14T12:37:15.324Z,3556
2017-02-14T12:38:16.034Z,3548
2017-02-14T12:39:16.755Z,3532
2017-02-14T12:40:17.474Z,3512
2017-02-14T12:41:18.198Z,3496
2017-02-14T12:42:18.904Z,3492
2017-02-14T12:43:19.658Z,3488
2017-02-14T12:44:20.358Z,3468
2017-02-14T12:45:21.053Z,3464
2017-02-14T12:46:21.831Z,3448
2017-02-14T12:47:22.562Z,3440
2017-02-14T12:48:23.289Z,3432
2017-02-14T12:49:23.988Z,3416
2017-02-14T12:50:24.690Z,3420
2017-02-14T12:51:25.408Z,3400
2017-02-14T12:52:26.138Z,3392
2017-02-14T12:53:26.826Z,3392
2017-02-14T12:54:27.532Z,3488
2017-02-14T12:55:28.258Z,3764
2017-02-14T12:56:28.998Z,3796
2017-02-14T12:57:29.756Z,5120
2017-02-14T12:58:30.474Z,6056
2017-02-14T12:59:31.220Z,5672
2017-02-14T13:00:31.994Z,4884
2017-02-14T13:01:32.794Z,4128
2017-02-14T13:02:33.511Z,4160
2017-02-14T13:03:34.206Z,3820
2017-02-14T13:04:34.928Z,3524
2017-02-14T13:05:35.626Z,3400
2017-02-14T13:06:36.370Z,3292
2017-02-14T13:07:37.106Z,3280
2017-02-14T13:08:37.835Z,3356
2017-02-14T13:09:38.673Z,3364
2017-02-14T13:10:39.438Z,3488
2017-02-14T13:11:40.111Z,4172
2017-02-14T13:12:40.834Z,4844
2017-02-14T13:13:41.579Z,4864
2017-02-14T13:14:42.287Z,4664
2017-02-14T13:15:43.018Z,3960
2017-02-14T13:16:43.790Z,3732
2017-02-14T13:17:44.547Z,3672
2017-02-14T13:18:45.251Z,3696
2017-02-14T13:19:45.960Z,3528
2017-02-14T13:20:46.674Z,3360
2017-02-14T13:21:47.405Z,3336
2017-02-14T13:22:48.116Z,3236
2017-02-14T13:23:48.962Z,3116
2017-02-14T13:24:49.742Z,3052
2017-02-14T13:25:50.526Z,3020
2017-02-14T13:26:51.412Z,3008
2017-02-14T13:27:52.146Z,3000
2017-02-14T13:28:52.954Z,2980
2017-02-14T13:29:53.821Z,2968
2017-02-14T13:30:54.573Z,2944
2017-02-14T13:31:55.334Z,2940
2017-02-14T13:32:56.247Z,2928
2017-02-14T13:33:56.957Z,2920
2017-02-14T13:34:57.668Z,2900
2017-02-14T13:35:58.375Z,2908
2017-02-14T13:36:59.082Z,2896
2017-02-14T13:37:59.782Z,2888
2017-02-14T13:39:00.466Z,2880
2017-02-14T13:40:01.182Z,2864
2017-02-14T13:41:02.109Z,2864
2017-02-14T13:42:02.835Z,2860
2017-02-14T13:43:03.553Z,2872
2017-02-14T13:44:04.295Z,2868
2017-02-14T13:45:05.103Z,2868
2017-02-14T13:46:05.836Z,2852
2017-02-14T13:47:06.874Z,2848
2017-02-14T13:48:07.683Z,2836
2017-02-14T13:49:08.415Z,2828
2017-02-14T13:50:09.211Z,2820
2017-02-14T13:51:09.953Z,2816
2017-02-14T13:52:10.891Z,2800
2017-02-14T13:53:11.650Z,2792
2017-02-14T13:54:12.328Z,2800
2017-02-14T13:55:13.160Z,2796
2017-02-14T13:56:13.888Z,2800
2017-02-14T13:57:14.705Z,2784
2017-02-14T13:58:15.433Z,2776
2017-02-14T13:59:16.161Z,2764
2017-02-14T14:00:16.901Z,2760
2017-02-14T14:01:17.605Z,2752
2017-02-14T14:02:18.431Z,2740
2017-02-14T14:03:19.194Z,2736
2017-02-14T14:04:19.967Z,2740
2017-02-14T14:05:20.697Z,2744
2017-02-14T14:06:21.421Z,2740